createdAt,value
2022-12-20T04:01:36.762Z,9.30
2022-12-20T04:04:05.277Z,13.03
2022-12-20T04:06:32.567Z,11.97
2022-12-20T04:08:59.800Z,13.50
2022-12-20T04:11:27.034Z,10.03
2022-12-20T04:13:55.749Z,17.13
2022-12-20T04:16:25.729Z,13.73
2022-12-20T04:18:53.674Z,12.80
2022-12-20T04:21:26.536Z,12.73
2022-12-20T04:23:54.121Z,14.67
2022-12-20T04:26:21.330Z,9.73
2022-12-20T04:28:48.651Z,14.40
2022-12-20T04:31:20.031Z,10.77
2022-12-20T04:33:51.099Z,11.33
2022-12-20T04:36:18.967Z,11.57
2022-12-20T04:38:46.199Z,13.53
2022-12-20T04:41:22.486Z,11.90
2022-12-20T04:43:51.806Z,10.67
2022-12-20T04:46:19.539Z,11.43
2022-12-20T04:48:57.242Z,11.93
2022-12-20T04:51:25.453Z,16.57
2022-12-20T04:53:52.835Z,12.77
2022-12-20T04:56:21.991Z,8.83
2022-12-20T04:58:51.165Z,8.67
2022-12-20T05:01:19.364Z,12.10
2022-12-20T05:03:48.082Z,12.77
2022-12-20T05:06:15.769Z,8.67
2022-12-20T05:08:43.312Z,11.77
2022-12-20T05:11:10.593Z,9.47
2022-12-20T05:13:37.873Z,18.13
2022-12-20T05:16:05.442Z,12.53
2022-12-20T05:18:32.799Z,10.53
2022-12-20T05:21:19.640Z,12.60
2022-12-20T05:24:06.202Z,10.83
2022-12-20T05:26:36.709Z,12.30
2022-12-20T05:29:05.116Z,15.40
2022-12-20T05:31:32.478Z,15.53
2022-12-20T05:34:00.352Z,22.20
2022-12-20T05:36:28.400Z,15.60
2022-12-20T05:39:01.911Z,21.03
2022-12-20T05:41:31.122Z,15.70
2022-12-20T05:43:58.504Z,14.87
2022-12-20T05:46:25.923Z,20.53
2022-12-20T05:48:53.400Z,21.77
2022-12-20T05:51:21.202Z,21.10
2022-12-20T05:53:48.346Z,17.00
2022-12-20T05:56:15.720Z,19.40
2022-12-20T05:58:42.900Z,12.50
2022-12-20T06:01:10.575Z,18.10
2022-12-20T06:03:40.421Z,21.13
2022-12-20T06:06:14.054Z,17.10
2022-12-20T06:08:41.642Z,13.77
2022-12-20T06:11:08.912Z,15.53
2022-12-20T06:13:36.184Z,15.37
2022-12-20T06:16:03.727Z,13.83
2022-12-20T06:18:30.999Z,16.77
2022-12-20T06:20:58.291Z,15.60
2022-12-20T06:23:25.577Z,19.63
2022-12-20T06:25:53.688Z,16.40
2022-12-20T06:28:22.299Z,23.13
2022-12-20T06:30:54.165Z,20.63
2022-12-20T06:33:21.687Z,20.70
2022-12-20T06:35:52.330Z,16.13
2022-12-20T06:38:19.543Z,17.83
2022-12-20T06:40:46.841Z,17.50
2022-12-20T06:43:14.107Z,15.47
2022-12-20T06:45:42.486Z,14.33
2022-12-20T06:48:10.547Z,13.83
2022-12-20T06:50:39.523Z,19.77
2022-12-20T06:53:06.861Z,20.37
2022-12-20T06:55:34.427Z,15.43
2022-12-20T06:58:01.679Z,18.10
2022-12-20T07:00:28.950Z,17.17
2022-12-20T07:02:56.503Z,17.93
2022-12-20T07:05:23.893Z,17.73
2022-12-20T07:07:51.113Z,20.20
2022-12-20T07:10:18.487Z,16.90
2022-12-20T07:12:48.491Z,19.87
2022-12-20T07:15:17.035Z,16.70
2022-12-20T07:17:44.808Z,17.30
2022-12-20T07:20:13.923Z,14.47
2022-12-20T07:22:42.088Z,18.80
2022-12-20T07:25:10.486Z,14.63
2022-12-20T07:27:37.725Z,21.60
2022-12-20T07:30:05.468Z,19.30
2022-12-20T07:32:32.842Z,24.57
2022-12-20T07:35:01.449Z,23.13
2022-12-20T07:37:30.017Z,22.97
2022-12-20T07:39:57.242Z,24.57
2022-12-20T07:42:27.747Z,21.77
2022-12-20T07:45:03.007Z,19.90
2022-12-20T07:47:30.316Z,19.87
2022-12-20T07:49:57.553Z,21.20
2022-12-20T07:52:29.377Z,18.93
2022-12-20T07:55:01.422Z,19.77
2022-12-20T07:57:42.728Z,18.30
2022-12-20T08:00:11.848Z,21.03
2022-12-20T08:02:45.757Z,21.63
2022-12-20T08:05:13.682Z,20.03
2022-12-20T08:07:42.839Z,18.17
2022-12-20T08:10:13.445Z,18.33
2022-12-20T08:12:41.894Z,16.63
2022-12-20T08:15:09.631Z,24.77
2022-12-20T08:17:36.931Z,22.93
2022-12-20T08:20:05.837Z,19.33
2022-12-20T08:22:33.565Z,21.60
2022-12-20T08:25:01.081Z,21.03
2022-12-20T08:27:28.311Z,18.90
2022-12-20T08:29:55.672Z,24.07
2022-12-20T08:32:22.850Z,25.87
2022-12-20T08:34:50.131Z,19.23
2022-12-20T08:37:17.915Z,18.60
2022-12-20T08:39:46.976Z,23.33
2022-12-20T08:42:14.376Z,17.30
2022-12-20T08:44:41.644Z,21.00
2022-12-20T08:47:08.904Z,20.77
2022-12-20T08:49:36.512Z,23.33
2022-12-20T08:52:03.774Z,16.63
2022-12-20T08:54:31.056Z,18.83
2022-12-20T08:56:58.443Z,20.63
2022-12-20T08:59:26.669Z,22.37
2022-12-20T09:01:54.951Z,15.60
2022-12-20T09:04:22.453Z,17.97
2022-12-20T09:06:49.758Z,16.10
2022-12-20T09:09:16.968Z,17.27
2022-12-20T09:11:44.197Z,14.63
2022-12-20T09:14:11.522Z,18.63
2022-12-20T09:16:38.827Z,17.57
2022-12-20T09:19:06.744Z,21.03
2022-12-20T09:21:35.150Z,17.63
2022-12-20T09:24:02.616Z,18.63
2022-12-20T09:26:30.790Z,21.70
2022-12-20T09:28:58.857Z,15.90
2022-12-20T09:31:27.129Z,14.77
2022-12-20T09:33:58.847Z,15.27
2022-12-20T09:36:27.659Z,14.33
2022-12-20T09:38:55.400Z,12.83
2022-12-20T09:41:31.611Z,32.53
2022-12-20T09:44:04.167Z,34.20
2022-12-20T09:46:31.673Z,35.07
2022-12-20T09:48:59.064Z,43.07
2022-12-20T09:51:35.193Z,28.93
2022-12-20T09:54:34.533Z,24.83
2022-12-20T09:57:06.895Z,27.87
2022-12-20T09:59:40.344Z,30.17
2022-12-20T10:02:44.444Z,23.03
2022-12-20T10:05:00.017Z,26.43
2022-12-20T10:07:39.511Z,20.17
2022-12-20T10:10:15.641Z,22.60
2022-12-20T10:12:58.210Z,18.30
2022-12-20T10:15:31.228Z,14.53
2022-12-20T10:18:13.810Z,15.57
2022-12-20T10:21:18.482Z,30.17
2022-12-20T10:24:02.404Z,19.57
2022-12-20T10:26:31.929Z,20.77
2022-12-20T10:28:59.350Z,18.63
2022-12-20T10:31:27.824Z,20.87
2022-12-20T10:33:55.808Z,15.50
2022-12-20T10:36:26.867Z,16.58
2022-12-20T10:38:57.446Z,19.33
2022-12-20T10:41:33.735Z,15.03
2022-12-20T10:44:17.052Z,16.20
2022-12-20T10:46:49.214Z,16.30
2022-12-20T10:49:31.808Z,15.97
2022-12-20T10:52:02.820Z,14.93
2022-12-20T10:54:35.672Z,15.03
2022-12-20T10:57:25.516Z,18.07
2022-12-20T10:59:56.879Z,15.80
2022-12-20T11:02:41.896Z,16.27
2022-12-20T11:05:10.516Z,13.90
2022-12-20T11:08:24.586Z,14.50
2022-12-20T11:10:38.502Z,14.37
2022-12-20T11:13:06.652Z,16.57
2022-12-20T11:15:37.939Z,17.60
2022-12-20T11:18:15.481Z,17.83
2022-12-20T11:21:08.576Z,18.40
2022-12-20T11:24:15.233Z,31.80
2022-12-20T11:26:51.147Z,30.43
2022-12-20T11:29:40.675Z,33.70
2022-12-20T11:32:28.159Z,28.73
2022-12-20T11:35:20.897Z,29.37
2022-12-20T11:38:13.155Z,21.33
2022-12-20T11:41:04.924Z,17.63
2022-12-20T11:43:54.243Z,23.57
2022-12-20T11:47:03.374Z,19.00
2022-12-20T11:49:49.255Z,17.40
2022-12-20T11:52:36.774Z,19.53
2022-12-20T11:55:12.845Z,18.57
2022-12-20T11:58:18.613Z,18.57
2022-12-20T12:01:08.897Z,20.67
2022-12-20T12:03:38.596Z,17.03
2022-12-20T12:06:10.461Z,19.57
2022-12-20T12:09:14.304Z,19.60
2022-12-20T12:12:09.091Z,23.23
2022-12-20T12:14:42.501Z,19.53
2022-12-20T12:17:18.084Z,18.87
2022-12-20T12:19:49.664Z,25.80
2022-12-20T12:22:32.970Z,22.37
2022-12-20T12:25:09.085Z,22.50
2022-12-20T12:27:36.446Z,19.07
2022-12-20T12:30:03.960Z,21.67
2022-12-20T12:32:34.329Z,20.97
2022-12-20T12:35:19.324Z,19.57
2022-12-20T12:38:03.723Z,21.67
2022-12-20T12:40:58.813Z,19.33
2022-12-20T12:43:44.959Z,21.50
2022-12-20T12:46:26.641Z,25.60
2022-12-20T12:49:05.738Z,21.37
2022-12-20T12:51:39.708Z,19.60
2022-12-20T12:54:09.741Z,29.87
2022-12-20T12:56:46.284Z,22.50
2022-12-20T12:59:23.622Z,19.67
2022-12-20T13:02:17.780Z,18.30
2022-12-20T13:05:01.781Z,21.57
2022-12-20T13:07:37.529Z,16.40
2022-12-20T13:10:17.173Z,16.50
2022-12-20T13:12:59.979Z,17.37
2022-12-20T13:15:27.237Z,16.90
2022-12-20T13:18:01.959Z,20.53
2022-12-20T13:20:32.639Z,18.93
2022-12-20T13:23:14.904Z,18.07
2022-12-20T13:25:48.345Z,15.73
2022-12-20T13:28:24.540Z,19.70
2022-12-20T13:31:04.854Z,15.97
2022-12-20T13:33:49.339Z,19.37
2022-12-20T13:36:38.117Z,15.60
2022-12-20T13:39:26.329Z,16.63
2022-12-20T13:42:14.193Z,25.10
2022-12-20T13:44:45.227Z,19.50
2022-12-20T13:47:31.658Z,17.77
2022-12-20T13:50:18.641Z,17.63
2022-12-20T13:52:45.944Z,16.07
2022-12-20T13:55:37.555Z,21.83
2022-12-20T13:58:17.868Z,22.20
2022-12-20T14:00:47.689Z,19.47
2022-12-20T14:03:27.644Z,17.80
2022-12-20T14:09:57.326Z,15.10
2022-12-20T14:12:31.320Z,14.93
2022-12-20T14:15:03.533Z,13.00
2022-12-20T14:17:32.904Z,15.73
2022-12-20T14:20:07.458Z,16.57
2022-12-20T14:22:36.676Z,15.07
2022-12-20T14:25:06.545Z,17.03
2022-12-20T14:27:37.252Z,16.87
2022-12-20T14:30:05.827Z,29.07
2022-12-20T14:32:33.269Z,26.20
2022-12-20T14:35:00.591Z,26.47
2022-12-20T14:37:37.381Z,19.40
2022-12-20T14:40:16.580Z,26.27
2022-12-20T14:42:44.040Z,17.93
2022-12-20T14:45:11.233Z,13.53
2022-12-20T14:47:48.224Z,13.23
2022-12-20T14:50:25.899Z,12.93
2022-12-20T14:52:53.213Z,11.13
2022-12-20T14:55:27.023Z,12.70
2022-12-20T14:57:56.851Z,15.43
2022-12-20T15:00:28.023Z,15.83
2022-12-20T15:03:01.585Z,14.77
2022-12-20T15:05:35.279Z,14.73
2022-12-20T15:08:27.791Z,16.40
2022-12-20T15:10:59.350Z,16.50
2022-12-20T15:13:32.610Z,21.20
2022-12-20T15:16:05.272Z,22.87
2022-12-20T15:18:32.919Z,19.70
2022-12-20T15:21:04.948Z,24.13
2022-12-20T15:23:32.712Z,22.27
2022-12-20T15:26:00.000Z,26.77
2022-12-20T15:28:27.753Z,37.73
2022-12-20T15:30:55.707Z,33.73
2022-12-20T15:33:26.195Z,33.43
2022-12-20T15:35:54.879Z,36.70
2022-12-20T15:38:47.824Z,34.20
2022-12-20T15:41:17.869Z,40.47
2022-12-20T15:43:45.433Z,46.47
2022-12-20T15:46:13.029Z,42.27
2022-12-20T15:48:40.303Z,36.87
2022-12-20T15:51:18.610Z,44.00
2022-12-20T15:53:45.999Z,46.27
2022-12-20T15:56:19.422Z,47.60
2022-12-20T15:58:47.526Z,42.97
2022-12-20T16:01:20.598Z,39.87
2022-12-20T16:03:48.080Z,42.50
2022-12-20T16:06:15.481Z,36.37
2022-12-20T16:08:42.749Z,36.13
2022-12-20T16:11:24.572Z,34.57
2022-12-20T16:13:51.970Z,33.03
2022-12-20T16:16:22.076Z,38.37
2022-12-20T16:18:49.664Z,38.93
2022-12-20T16:21:19.369Z,35.50
2022-12-20T16:23:47.148Z,31.50
2022-12-20T16:26:16.203Z,27.17
2022-12-20T16:28:43.942Z,30.53
2022-12-20T16:31:25.761Z,32.70
2022-12-20T16:33:54.455Z,32.43
2022-12-20T16:36:22.643Z,31.27
2022-12-20T16:38:51.283Z,31.87
2022-12-20T16:41:21.303Z,36.67
2022-12-20T16:43:50.685Z,32.73
2022-12-20T16:46:20.046Z,40.90
2022-12-20T16:48:47.899Z,41.53
2022-12-20T16:51:24.700Z,37.00
2022-12-20T16:56:44.441Z,48.97
2022-12-20T16:59:21.470Z,44.70
2022-12-20T17:01:52.901Z,47.83
2022-12-20T17:04:21.492Z,49.50
2022-12-20T17:06:49.443Z,48.33
2022-12-20T17:12:04.464Z,43.83
2022-12-20T17:14:31.774Z,46.70
2022-12-20T17:17:02.289Z,39.50
2022-12-20T17:19:29.752Z,40.17
2022-12-20T17:24:41.853Z,38.27
2022-12-20T17:27:10.813Z,39.10
2022-12-20T17:29:38.064Z,43.40
2022-12-20T17:32:20.277Z,33.00
2022-12-20T17:34:48.202Z,40.90
2022-12-20T17:37:15.797Z,38.43
2022-12-20T17:39:43.054Z,48.57
2022-12-20T17:42:13.632Z,50.27
2022-12-20T17:44:40.921Z,55.83
2022-12-20T17:47:08.172Z,55.83
2022-12-20T17:49:35.451Z,56.50
2022-12-20T17:52:02.763Z,46.77
2022-12-20T17:54:38.524Z,48.37
2022-12-20T17:57:06.809Z,54.73
2022-12-20T17:59:34.077Z,50.70
2022-12-20T18:02:01.440Z,56.50
2022-12-20T18:04:28.897Z,58.90
2022-12-20T18:06:57.251Z,45.70
2022-12-20T18:09:24.552Z,49.80
2022-12-20T18:11:51.785Z,44.40
2022-12-20T18:14:19.039Z,51.53
2022-12-20T18:16:46.414Z,44.70
2022-12-20T18:19:18.368Z,47.73
2022-12-20T18:21:45.655Z,44.37
2022-12-20T18:24:14.700Z,51.70
2022-12-20T18:26:44.864Z,49.53
2022-12-20T18:29:12.392Z,53.93
2022-12-20T18:31:40.008Z,66.43
2022-12-20T18:34:07.519Z,88.70
2022-12-20T18:36:36.600Z,122.00
2022-12-20T18:39:06.880Z,104.50
2022-12-20T18:41:35.200Z,96.43
2022-12-20T18:44:05.151Z,81.10
2022-12-20T18:46:33.169Z,64.70
2022-12-20T18:49:01.832Z,58.87
2022-12-20T18:51:31.569Z,54.50
2022-12-20T18:53:59.983Z,49.87
2022-12-20T18:56:31.001Z,56.63
2022-12-20T18:59:07.895Z,51.40
2022-12-20T19:01:37.861Z,57.23
2022-12-20T19:04:07.359Z,47.90
2022-12-20T19:06:35.715Z,44.57
2022-12-20T19:09:05.928Z,43.60
2022-12-20T19:11:33.715Z,41.87
2022-12-20T19:14:01.148Z,49.00
2022-12-20T19:16:31.903Z,42.53
2022-12-20T19:19:03.617Z,34.70
2022-12-20T19:21:32.922Z,33.83
2022-12-20T19:24:04.052Z,36.30
2022-12-20T19:26:31.547Z,32.10
2022-12-20T19:28:58.948Z,31.60
2022-12-20T19:31:31.199Z,26.53
2022-12-20T19:34:03.431Z,33.30
2022-12-20T19:36:36.778Z,34.57
2022-12-20T19:39:06.240Z,35.07
2022-12-20T19:41:34.735Z,41.87
2022-12-20T19:44:02.447Z,35.57
2022-12-20T19:46:30.462Z,32.63
2022-12-20T19:48:59.581Z,34.43
2022-12-20T19:51:28.926Z,38.60
2022-12-20T19:53:57.608Z,38.13
2022-12-20T19:56:27.626Z,44.33
2022-12-20T19:58:55.663Z,43.00
2022-12-20T20:01:26.158Z,35.43
2022-12-20T20:03:55.500Z,53.53
2022-12-20T20:06:24.027Z,89.57
2022-12-20T20:08:51.513Z,67.83
2022-12-20T20:11:19.489Z,52.57
2022-12-20T20:13:47.138Z,58.07
2022-12-20T20:16:20.223Z,54.30
2022-12-20T20:18:49.387Z,46.70
2022-12-20T20:21:21.112Z,46.77
2022-12-20T20:23:50.208Z,47.00
2022-12-20T20:26:20.796Z,39.27
2022-12-20T20:28:48.115Z,29.87
2022-12-20T20:31:16.845Z,27.00
2022-12-20T20:33:44.475Z,28.30
2022-12-20T20:36:17.375Z,30.37
2022-12-20T20:38:45.699Z,30.50
2022-12-20T20:41:14.218Z,33.77
2022-12-20T20:43:42.474Z,31.30
2022-12-20T20:46:12.962Z,34.73
2022-12-20T20:48:40.524Z,31.80
2022-12-20T20:51:07.972Z,32.53
2022-12-20T20:53:35.752Z,32.93
2022-12-20T20:56:06.849Z,34.20
2022-12-20T20:58:35.283Z,34.70
2022-12-20T21:01:05.481Z,36.13
2022-12-20T21:03:33.101Z,33.50
2022-12-20T21:06:35.071Z,31.70
2022-12-20T21:08:47.677Z,32.37
2022-12-20T21:11:15.915Z,35.67
2022-12-20T21:13:43.483Z,35.87
2022-12-20T21:16:20.264Z,31.53
2022-12-20T21:18:55.503Z,29.37
2022-12-20T21:21:24.551Z,33.03
2022-12-20T21:23:55.653Z,35.40
2022-12-20T21:26:25.308Z,42.30
2022-12-20T21:28:59.648Z,42.23
2022-12-20T21:31:27.696Z,35.50
2022-12-20T21:33:56.725Z,46.13
2022-12-20T21:36:24.123Z,37.73
2022-12-20T21:38:53.599Z,21.70
2022-12-20T21:41:23.347Z,22.27
2022-12-20T21:43:51.493Z,21.67
2022-12-20T21:46:18.913Z,20.03
2022-12-20T21:48:46.944Z,18.77
2022-12-20T21:51:17.170Z,24.60
2022-12-20T21:53:49.848Z,21.13
2022-12-20T21:56:18.894Z,21.27
2022-12-20T21:58:46.810Z,22.00
